sensor_id;sensor_type;location;lat;lon;timestamp;temperature;humidity
48998;DHT22;34807;51.456;7.244;2023-02-11T00:01:45;4.60;99.90
48998;DHT22;34807;51.456;7.244;2023-02-11T00:04:10;4.60;99.90
48998;DHT22;34807;51.456;7.244;2023-02-11T00:06:36;4.60;99.90
48998;DHT22;34807;51.456;7.244;2023-02-11T00:09:01;4.60;99.90
48998;DHT22;34807;51.456;7.244;2023-02-11T00:11:28;4.60;99.90
48998;DHT22;34807;51.456;7.244;2023-02-11T00:13:57;4.60;99.90
48998;DHT22;34807;51.456;7.244;2023-02-11T00:16:23;4.50;99.90
48998;DHT22;34807;51.456;7.244;2023-02-11T00:18:48;4.60;99.90
48998;DHT22;34807;51.456;7.244;2023-02-11T00:21:15;4.60;99.90
48998;DHT22;34807;51.456;7.244;2023-02-11T00:23:41;4.60;99.90
48998;DHT22;34807;51.456;7.244;2023-02-11T00:26:40;4.60;99.90
48998;DHT22;34807;51.456;7.244;2023-02-11T00:28:59;4.60;99.90
48998;DHT22;34807;51.456;7.244;2023-02-11T00:31:25;4.50;99.90
48998;DHT22;34807;51.456;7.244;2023-02-11T00:33:50;4.50;99.90
48998;DHT22;34807;51.456;7.244;2023-02-11T00:36:17;4.50;99.90
48998;DHT22;34807;51.456;7.244;2023-02-11T00:38:43;4.50;99.90
48998;DHT22;34807;51.456;7.244;2023-02-11T00:41:09;4.60;99.90
48998;DHT22;34807;51.456;7.244;2023-02-11T00:43:35;4.50;99.90
48998;DHT22;34807;51.456;7.244;2023-02-11T00:46:01;4.60;99.90
48998;DHT22;34807;51.456;7.244;2023-02-11T00:48:26;4.60;99.90
48998;DHT22;34807;51.456;7.244;2023-02-11T00:50:52;4.60;99.90
48998;DHT22;34807;51.456;7.244;2023-02-11T00:53:17;4.60;99.90
48998;DHT22;34807;51.456;7.244;2023-02-11T00:55:43;4.60;99.90
48998;DHT22;34807;51.456;7.244;2023-02-11T00:58:08;4.60;99.90
48998;DHT22;34807;51.456;7.244;2023-02-11T01:00:34;4.60;99.90
48998;DHT22;34807;51.456;7.244;2023-02-11T01:02:59;4.60;99.90
48998;DHT22;34807;51.456;7.244;2023-02-11T01:05:24;4.60;99.90
48998;DHT22;34807;51.456;7.244;2023-02-11T01:07:50;4.60;99.90
48998;DHT22;34807;51.456;7.244;2023-02-11T01:10:15;4.60;99.90
48998;DHT22;34807;51.456;7.244;2023-02-11T01:12:41;4.60;99.90
48998;DHT22;34807;51.456;7.244;2023-02-11T01:15:07;4.60;99.90
48998;DHT22;34807;51.456;7.244;2023-02-11T01:17:33;4.60;99.90
48998;DHT22;34807;51.456;7.244;2023-02-11T01:20:01;4.60;99.90
48998;DHT22;34807;51.456;7.244;2023-02-11T01:22:27;4.70;99.90
48998;DHT22;34807;51.456;7.244;2023-02-11T01:24:53;4.60;99.90
48998;DHT22;34807;51.456;7.244;2023-02-11T01:27:18;4.70;99.90
48998;DHT22;34807;51.456;7.244;2023-02-11T01:29:44;4.60;99.90
48998;DHT22;34807;51.456;7.244;2023-02-11T01:32:09;4.70;99.90
48998;DHT22;34807;51.456;7.244;2023-02-11T01:34:34;4.70;99.90
48998;DHT22;34807;51.456;7.244;2023-02-11T01:37:00;4.70;99.90
48998;DHT22;34807;51.456;7.244;2023-02-11T01:39:26;4.60;99.90
48998;DHT22;34807;51.456;7.244;2023-02-11T01:41:52;4.60;99.90
48998;DHT22;34807;51.456;7.244;2023-02-11T01:44:21;4.70;99.90
48998;DHT22;34807;51.456;7.244;2023-02-11T01:46:46;4.70;99.90
48998;DHT22;34807;51.456;7.244;2023-02-11T01:49:14;4.70;99.90
48998;DHT22;34807;51.456;7.244;2023-02-11T01:51:43;4.70;99.90
48998;DHT22;34807;51.456;7.244;2023-02-11T01:54:10;4.70;99.90
48998;DHT22;34807;51.456;7.244;2023-02-11T01:56:57;4.70;99.90
48998;DHT22;34807;51.456;7.244;2023-02-11T02:02:11;4.70;99.90
48998;DHT22;34807;51.456;7.244;2023-02-11T02:04:38;4.70;99.90
48998;DHT22;34807;51.456;7.244;2023-02-11T02:07:15;4.70;99.90
48998;DHT22;34807;51.456;7.244;2023-02-11T02:09:43;4.70;99.90
48998;DHT22;34807;51.456;7.244;2023-02-11T02:12:10;4.70;99.90
48998;DHT22;34807;51.456;7.244;2023-02-11T02:14:39;4.70;99.90
48998;DHT22;34807;51.456;7.244;2023-02-11T02:17:05;4.70;99.90
48998;DHT22;34807;51.456;7.244;2023-02-11T02:19:51;4.70;99.90
48998;DHT22;34807;51.456;7.244;2023-02-11T02:33:05;4.70;99.90
48998;DHT22;34807;51.456;7.244;2023-02-11T02:36:05;4.80;99.90
48998;DHT22;34807;51.456;7.244;2023-02-11T02:40:47;4.70;99.90
48998;DHT22;34807;51.456;7.244;2023-02-11T02:43:14;4.70;99.90
48998;DHT22;34807;51.456;7.244;2023-02-11T02:45:40;4.70;99.90
48998;DHT22;34807;51.456;7.244;2023-02-11T02:48:06;4.70;99.90
48998;DHT22;34807;51.456;7.244;2023-02-11T02:50:35;4.70;99.90
48998;DHT22;34807;51.456;7.244;2023-02-11T03:02:57;4.80;99.90
48998;DHT22;34807;51.456;7.244;2023-02-11T03:05:36;4.80;99.90
48998;DHT22;34807;51.456;7.244;2023-02-11T03:08:08;4.80;99.90
48998;DHT22;34807;51.456;7.244;2023-02-11T03:10:37;4.80;99.90
48998;DHT22;34807;51.456;7.244;2023-02-11T03:13:04;4.80;99.90
48998;DHT22;34807;51.456;7.244;2023-02-11T03:15:31;4.80;99.90
48998;DHT22;34807;51.456;7.244;2023-02-11T03:17:58;4.80;99.90
48998;DHT22;34807;51.456;7.244;2023-02-11T03:20:24;4.80;99.90
48998;DHT22;34807;51.456;7.244;2023-02-11T03:22:52;4.80;99.90
48998;DHT22;34807;51.456;7.244;2023-02-11T03:25:19;4.80;99.90
48998;DHT22;34807;51.456;7.244;2023-02-11T03:27:54;4.80;99.90
48998;DHT22;34807;51.456;7.244;2023-02-11T03:32:51;4.80;99.90
48998;DHT22;34807;51.456;7.244;2023-02-11T03:35:21;4.80;99.90
48998;DHT22;34807;51.456;7.244;2023-02-11T03:37:49;4.80;99.90
48998;DHT22;34807;51.456;7.244;2023-02-11T03:40:16;4.80;99.90
48998;DHT22;34807;51.456;7.244;2023-02-11T03:42:45;4.80;99.90
48998;DHT22;34807;51.456;7.244;2023-02-11T03:45:14;4.80;99.90
48998;DHT22;34807;51.456;7.244;2023-02-11T03:47:42;4.80;99.90
48998;DHT22;34807;51.456;7.244;2023-02-11T03:50:09;4.80;99.90
48998;DHT22;34807;51.456;7.244;2023-02-11T03:52:37;4.80;99.90
48998;DHT22;34807;51.456;7.244;2023-02-11T03:55:04;4.70;99.90
48998;DHT22;34807;51.456;7.244;2023-02-11T03:57:32;4.80;99.90
48998;DHT22;34807;51.456;7.244;2023-02-11T03:59:58;4.80;99.90
48998;DHT22;34807;51.456;7.244;2023-02-11T04:02:32;4.80;99.90
48998;DHT22;34807;51.456;7.244;2023-02-11T04:04:58;4.80;99.90
48998;DHT22;34807;51.456;7.244;2023-02-11T04:07:24;4.80;99.90
48998;DHT22;34807;51.456;7.244;2023-02-11T04:09:50;4.80;99.90
48998;DHT22;34807;51.456;7.244;2023-02-11T04:12:16;4.80;99.90
48998;DHT22;34807;51.456;7.244;2023-02-11T04:14:41;4.80;99.90
48998;DHT22;34807;51.456;7.244;2023-02-11T04:17:07;4.80;99.90
48998;DHT22;34807;51.456;7.244;2023-02-11T04:19:32;4.80;99.90
48998;DHT22;34807;51.456;7.244;2023-02-11T04:21:58;4.80;99.90
48998;DHT22;34807;51.456;7.244;2023-02-11T04:24:23;4.80;99.90
48998;DHT22;34807;51.456;7.244;2023-02-11T04:26:49;4.80;99.90
48998;DHT22;34807;51.456;7.244;2023-02-11T04:29:14;4.80;99.90
48998;DHT22;34807;51.456;7.244;2023-02-11T04:31:40;4.80;99.90
48998;DHT22;34807;51.456;7.244;2023-02-11T04:34:05;4.80;99.90
48998;DHT22;34807;51.456;7.244;2023-02-11T04:36:31;4.80;99.90
48998;DHT22;34807;51.456;7.244;2023-02-11T04:38:56;4.70;99.90
48998;DHT22;34807;51.456;7.244;2023-02-11T04:41:22;4.70;99.90
48998;DHT22;34807;51.456;7.244;2023-02-11T04:43:47;4.70;99.90
48998;DHT22;34807;51.456;7.244;2023-02-11T04:46:13;4.80;99.90
48998;DHT22;34807;51.456;7.244;2023-02-11T04:48:38;4.70;99.90
48998;DHT22;34807;51.456;7.244;2023-02-11T04:51:04;4.70;99.90
48998;DHT22;34807;51.456;7.244;2023-02-11T04:53:29;4.70;99.90
48998;DHT22;34807;51.456;7.244;2023-02-11T04:55:55;4.80;99.90
48998;DHT22;34807;51.456;7.244;2023-02-11T04:58:20;4.80;99.90
48998;DHT22;34807;51.456;7.244;2023-02-11T05:00:46;4.80;99.90
48998;DHT22;34807;51.456;7.244;2023-02-11T05:03:12;4.80;99.90
48998;DHT22;34807;51.456;7.244;2023-02-11T05:05:38;4.80;99.90
48998;DHT22;34807;51.456;7.244;2023-02-11T05:08:05;4.70;99.90
48998;DHT22;34807;51.456;7.244;2023-02-11T05:10:30;4.70;99.90
48998;DHT22;34807;51.456;7.244;2023-02-11T05:12:56;4.70;99.90
48998;DHT22;34807;51.456;7.244;2023-02-11T05:15:21;4.70;99.90
48998;DHT22;34807;51.456;7.244;2023-02-11T05:17:47;4.80;99.90
48998;DHT22;34807;51.456;7.244;2023-02-11T05:20:12;4.70;99.90
48998;DHT22;34807;51.456;7.244;2023-02-11T05:22:38;4.80;99.90
48998;DHT22;34807;51.456;7.244;2023-02-11T05:25:03;4.70;99.90
48998;DHT22;34807;51.456;7.244;2023-02-11T05:27:29;4.70;99.90
48998;DHT22;34807;51.456;7.244;2023-02-11T05:29:54;4.70;99.90
48998;DHT22;34807;51.456;7.244;2023-02-11T05:32:20;4.70;99.90
48998;DHT22;34807;51.456;7.244;2023-02-11T05:34:45;4.70;99.90
48998;DHT22;34807;51.456;7.244;2023-02-11T05:37:10;4.70;99.90
48998;DHT22;34807;51.456;7.244;2023-02-11T05:39:36;4.80;99.90
48998;DHT22;34807;51.456;7.244;2023-02-11T05:42:01;4.70;99.90
48998;DHT22;34807;51.456;7.244;2023-02-11T05:44:27;4.70;99.90
48998;DHT22;34807;51.456;7.244;2023-02-11T05:46:52;4.70;99.90
48998;DHT22;34807;51.456;7.244;2023-02-11T05:49:18;4.70;99.90
48998;DHT22;34807;51.456;7.244;2023-02-11T05:51:43;4.70;99.90
48998;DHT22;34807;51.456;7.244;2023-02-11T05:54:09;4.80;99.90
48998;DHT22;34807;51.456;7.244;2023-02-11T05:56:35;4.70;99.90
48998;DHT22;34807;51.456;7.244;2023-02-11T05:59:00;4.70;99.90
48998;DHT22;34807;51.456;7.244;2023-02-11T06:01:25;4.80;99.90
48998;DHT22;34807;51.456;7.244;2023-02-11T06:03:51;4.70;99.90
48998;DHT22;34807;51.456;7.244;2023-02-11T06:06:16;4.80;99.90
48998;DHT22;34807;51.456;7.244;2023-02-11T06:08:42;4.70;99.90
48998;DHT22;34807;51.456;7.244;2023-02-11T06:11:08;4.80;99.90
48998;DHT22;34807;51.456;7.244;2023-02-11T06:13:33;4.70;99.90
48998;DHT22;34807;51.456;7.244;2023-02-11T06:16:00;4.70;99.90
48998;DHT22;34807;51.456;7.244;2023-02-11T06:18:25;4.80;99.90
48998;DHT22;34807;51.456;7.244;2023-02-11T06:20:51;4.70;99.90
48998;DHT22;34807;51.456;7.244;2023-02-11T06:23:16;4.80;99.90
48998;DHT22;34807;51.456;7.244;2023-02-11T06:25:42;4.70;99.90
48998;DHT22;34807;51.456;7.244;2023-02-11T06:28:07;4.80;99.90
48998;DHT22;34807;51.456;7.244;2023-02-11T06:30:38;4.70;99.90
48998;DHT22;34807;51.456;7.244;2023-02-11T06:33:03;4.70;99.90
48998;DHT22;34807;51.456;7.244;2023-02-11T06:35:29;4.80;99.90
48998;DHT22;34807;51.456;7.244;2023-02-11T06:37:55;4.70;99.90
48998;DHT22;34807;51.456;7.244;2023-02-11T06:40:20;4.70;99.90
48998;DHT22;34807;51.456;7.244;2023-02-11T06:42:46;4.70;99.90
48998;DHT22;34807;51.456;7.244;2023-02-11T06:45:11;4.70;99.90
48998;DHT22;34807;51.456;7.244;2023-02-11T06:47:38;4.70;99.90
48998;DHT22;34807;51.456;7.244;2023-02-11T06:50:03;4.70;99.90
48998;DHT22;34807;51.456;7.244;2023-02-11T06:52:30;4.80;99.90
48998;DHT22;34807;51.456;7.244;2023-02-11T06:54:55;4.70;99.90
48998;DHT22;34807;51.456;7.244;2023-02-11T06:57:21;4.70;99.90
48998;DHT22;34807;51.456;7.244;2023-02-11T06:59:46;4.70;99.90
48998;DHT22;34807;51.456;7.244;2023-02-11T07:02:12;4.80;99.90
48998;DHT22;34807;51.456;7.244;2023-02-11T07:04:37;4.70;99.90
48998;DHT22;34807;51.456;7.244;2023-02-11T07:07:03;4.70;99.90
48998;DHT22;34807;51.456;7.244;2023-02-11T07:09:28;4.80;99.90
48998;DHT22;34807;51.456;7.244;2023-02-11T07:11:53;4.70;99.90
48998;DHT22;34807;51.456;7.244;2023-02-11T07:14:19;4.70;99.90
48998;DHT22;34807;51.456;7.244;2023-02-11T07:16:44;4.70;99.90
48998;DHT22;34807;51.456;7.244;2023-02-11T07:19:10;4.70;99.90
48998;DHT22;34807;51.456;7.244;2023-02-11T07:21:35;4.70;99.90
48998;DHT22;34807;51.456;7.244;2023-02-11T07:24:01;4.80;99.90
48998;DHT22;34807;51.456;7.244;2023-02-11T07:26:30;4.70;99.90
48998;DHT22;34807;51.456;7.244;2023-02-11T07:28:55;4.80;99.90
48998;DHT22;34807;51.456;7.244;2023-02-11T07:31:22;4.80;99.90
48998;DHT22;34807;51.456;7.244;2023-02-11T07:33:48;4.80;99.90
48998;DHT22;34807;51.456;7.244;2023-02-11T07:36:14;4.80;99.90
48998;DHT22;34807;51.456;7.244;2023-02-11T07:38:40;4.80;99.90
48998;DHT22;34807;51.456;7.244;2023-02-11T07:41:06;4.80;99.90
48998;DHT22;34807;51.456;7.244;2023-02-11T07:43:32;4.80;99.90
48998;DHT22;34807;51.456;7.244;2023-02-11T07:45:58;4.80;99.90
48998;DHT22;34807;51.456;7.244;2023-02-11T07:48:24;4.80;99.90
48998;DHT22;34807;51.456;7.244;2023-02-11T07:50:49;4.80;99.90
48998;DHT22;34807;51.456;7.244;2023-02-11T07:53:15;4.80;99.90
48998;DHT22;34807;51.456;7.244;2023-02-11T07:55:44;4.80;99.90
48998;DHT22;34807;51.456;7.244;2023-02-11T07:58:09;4.80;99.90
48998;DHT22;34807;51.456;7.244;2023-02-11T08:00:35;4.80;99.90
48998;DHT22;34807;51.456;7.244;2023-02-11T08:03:00;4.80;99.90
48998;DHT22;34807;51.456;7.244;2023-02-11T08:05:26;4.80;99.90
48998;DHT22;34807;51.456;7.244;2023-02-11T08:07:51;4.80;99.90
48998;DHT22;34807;51.456;7.244;2023-02-11T08:10:17;4.80;99.90
48998;DHT22;34807;51.456;7.244;2023-02-11T08:12:43;4.80;99.90
48998;DHT22;34807;51.456;7.244;2023-02-11T08:15:08;4.80;99.90
48998;DHT22;34807;51.456;7.244;2023-02-11T08:17:34;4.80;99.90
48998;DHT22;34807;51.456;7.244;2023-02-11T08:20:00;4.80;99.90
48998;DHT22;34807;51.456;7.244;2023-02-11T08:22:25;4.80;99.90
48998;DHT22;34807;51.456;7.244;2023-02-11T08:24:51;4.80;99.90
48998;DHT22;34807;51.456;7.244;2023-02-11T08:27:16;4.80;99.90
48998;DHT22;34807;51.456;7.244;2023-02-11T08:29:42;4.90;99.90
48998;DHT22;34807;51.456;7.244;2023-02-11T08:32:07;4.90;99.90
48998;DHT22;34807;51.456;7.244;2023-02-11T08:34:33;4.90;99.90
48998;DHT22;34807;51.456;7.244;2023-02-11T08:36:58;4.90;99.90
48998;DHT22;34807;51.456;7.244;2023-02-11T08:39:24;4.90;99.90
48998;DHT22;34807;51.456;7.244;2023-02-11T08:41:51;4.90;99.90
48998;DHT22;34807;51.456;7.244;2023-02-11T08:44:17;4.90;99.90
48998;DHT22;34807;51.456;7.244;2023-02-11T08:46:42;4.90;99.90
48998;DHT22;34807;51.456;7.244;2023-02-11T08:49:08;4.90;99.90
48998;DHT22;34807;51.456;7.244;2023-02-11T08:51:33;4.90;99.90
48998;DHT22;34807;51.456;7.244;2023-02-11T08:53:59;4.90;99.90
48998;DHT22;34807;51.456;7.244;2023-02-11T08:56:25;4.90;99.90
48998;DHT22;34807;51.456;7.244;2023-02-11T08:58:51;4.90;99.90
48998;DHT22;34807;51.456;7.244;2023-02-11T09:01:21;4.90;99.90
48998;DHT22;34807;51.456;7.244;2023-02-11T09:03:47;5.00;99.90
48998;DHT22;34807;51.456;7.244;2023-02-11T09:06:13;5.00;99.90
48998;DHT22;34807;51.456;7.244;2023-02-11T09:08:40;5.00;99.90
48998;DHT22;34807;51.456;7.244;2023-02-11T09:11:06;5.00;99.90
48998;DHT22;34807;51.456;7.244;2023-02-11T09:13:31;5.00;99.90
48998;DHT22;34807;51.456;7.244;2023-02-11T09:15:58;5.00;99.90
48998;DHT22;34807;51.456;7.244;2023-02-11T09:18:24;5.00;99.90
48998;DHT22;34807;51.456;7.244;2023-02-11T09:20:49;5.00;99.90
48998;DHT22;34807;51.456;7.244;2023-02-11T09:23:15;5.00;99.90
48998;DHT22;34807;51.456;7.244;2023-02-11T09:25:40;5.10;99.90
48998;DHT22;34807;51.456;7.244;2023-02-11T09:28:06;5.10;99.90
48998;DHT22;34807;51.456;7.244;2023-02-11T09:30:32;5.10;99.90
48998;DHT22;34807;51.456;7.244;2023-02-11T09:32:58;5.10;99.90
48998;DHT22;34807;51.456;7.244;2023-02-11T09:35:23;5.10;99.90
48998;DHT22;34807;51.456;7.244;2023-02-11T09:37:49;5.10;99.90
48998;DHT22;34807;51.456;7.244;2023-02-11T09:40:14;5.20;99.90
48998;DHT22;34807;51.456;7.244;2023-02-11T09:42:52;5.20;99.90
48998;DHT22;34807;51.456;7.244;2023-02-11T09:45:23;5.20;99.90
48998;DHT22;34807;51.456;7.244;2023-02-11T09:47:50;5.20;99.90
48998;DHT22;34807;51.456;7.244;2023-02-11T09:50:18;5.20;99.90
48998;DHT22;34807;51.456;7.244;2023-02-11T09:52:46;5.20;99.90
48998;DHT22;34807;51.456;7.244;2023-02-11T09:57:51;5.30;99.90
48998;DHT22;34807;51.456;7.244;2023-02-11T10:00:22;5.30;99.90
48998;DHT22;34807;51.456;7.244;2023-02-11T10:08:19;5.30;99.90
48998;DHT22;34807;51.456;7.244;2023-02-11T10:10:49;5.30;99.90
48998;DHT22;34807;51.456;7.244;2023-02-11T10:15:47;5.30;99.90
48998;DHT22;34807;51.456;7.244;2023-02-11T10:23:29;5.40;99.90
48998;DHT22;34807;51.456;7.244;2023-02-11T10:25:56;5.40;99.90
48998;DHT22;34807;51.456;7.244;2023-02-11T10:28:23;5.40;99.90
48998;DHT22;34807;51.456;7.244;2023-02-11T10:30:55;5.50;99.90
48998;DHT22;34807;51.456;7.244;2023-02-11T10:33:23;5.50;99.90
48998;DHT22;34807;51.456;7.244;2023-02-11T10:35:50;5.50;99.90
48998;DHT22;34807;51.456;7.244;2023-02-11T10:38:16;5.50;99.90
48998;DHT22;34807;51.456;7.244;2023-02-11T10:40:41;5.50;99.90
48998;DHT22;34807;51.456;7.244;2023-02-11T10:43:09;5.50;99.90
48998;DHT22;34807;51.456;7.244;2023-02-11T10:45:46;5.50;99.90
48998;DHT22;34807;51.456;7.244;2023-02-11T10:51:07;5.60;99.90
48998;DHT22;34807;51.456;7.244;2023-02-11T10:53:33;5.60;99.90
48998;DHT22;34807;51.456;7.244;2023-02-11T10:56:00;5.60;99.90
48998;DHT22;34807;51.456;7.244;2023-02-11T10:58:35;5.60;99.90
48998;DHT22;34807;51.456;7.244;2023-02-11T11:01:03;5.60;99.90
48998;DHT22;34807;51.456;7.244;2023-02-11T11:03:31;5.60;99.90
48998;DHT22;34807;51.456;7.244;2023-02-11T11:05:59;5.60;99.90
48998;DHT22;34807;51.456;7.244;2023-02-11T11:11:04;5.70;99.90
48998;DHT22;34807;51.456;7.244;2023-02-11T11:18:36;5.70;99.90
48998;DHT22;34807;51.456;7.244;2023-02-11T11:21:02;5.70;99.90
48998;DHT22;34807;51.456;7.244;2023-02-11T11:23:30;5.70;99.90
48998;DHT22;34807;51.456;7.244;2023-02-11T11:28:28;5.80;99.90
48998;DHT22;34807;51.456;7.244;2023-02-11T11:30:54;5.80;99.90
48998;DHT22;34807;51.456;7.244;2023-02-11T11:33:25;5.80;99.90
48998;DHT22;34807;51.456;7.244;2023-02-11T11:36:10;5.80;99.90
48998;DHT22;34807;51.456;7.244;2023-02-11T11:38:37;5.80;99.90
48998;DHT22;34807;51.456;7.244;2023-02-11T11:43:52;5.80;99.90
48998;DHT22;34807;51.456;7.244;2023-02-11T11:46:21;5.80;99.90
48998;DHT22;34807;51.456;7.244;2023-02-11T11:48:47;5.80;99.90
48998;DHT22;34807;51.456;7.244;2023-02-11T11:51:13;5.80;99.90
48998;DHT22;34807;51.456;7.244;2023-02-11T11:56:14;5.90;99.90
48998;DHT22;34807;51.456;7.244;2023-02-11T11:58:41;5.90;99.90
48998;DHT22;34807;51.456;7.244;2023-02-11T12:01:14;5.90;99.90
48998;DHT22;34807;51.456;7.244;2023-02-11T12:04:02;5.90;99.90
48998;DHT22;34807;51.456;7.244;2023-02-11T12:06:44;5.90;99.90
48998;DHT22;34807;51.456;7.244;2023-02-11T12:17:06;6.00;99.90
48998;DHT22;34807;51.456;7.244;2023-02-11T12:23:02;6.00;99.90
48998;DHT22;34807;51.456;7.244;2023-02-11T12:27:42;6.00;99.90
48998;DHT22;34807;51.456;7.244;2023-02-11T12:32:57;6.00;99.90
48998;DHT22;34807;51.456;7.244;2023-02-11T12:35:30;6.00;99.90
48998;DHT22;34807;51.456;7.244;2023-02-11T12:43:22;6.10;99.90
48998;DHT22;34807;51.456;7.244;2023-02-11T13:01:44;6.20;99.90
48998;DHT22;34807;51.456;7.244;2023-02-11T13:06:46;6.20;99.90
48998;DHT22;34807;51.456;7.244;2023-02-11T13:09:16;6.20;99.90
48998;DHT22;34807;51.456;7.244;2023-02-11T13:11:44;6.20;99.90
48998;DHT22;34807;51.456;7.244;2023-02-11T13:14:21;6.20;99.90
48998;DHT22;34807;51.456;7.244;2023-02-11T13:16:49;6.20;99.90
48998;DHT22;34807;51.456;7.244;2023-02-11T13:26:49;6.30;99.90
48998;DHT22;34807;51.456;7.244;2023-02-11T13:29:22;6.30;99.90
48998;DHT22;34807;51.456;7.244;2023-02-11T13:31:55;6.30;99.90
48998;DHT22;34807;51.456;7.244;2023-02-11T13:39:41;6.40;99.90
48998;DHT22;34807;51.456;7.244;2023-02-11T13:42:11;6.30;99.90
48998;DHT22;34807;51.456;7.244;2023-02-11T13:44:38;6.30;99.90
48998;DHT22;34807;51.456;7.244;2023-02-11T13:47:05;6.30;99.90
48998;DHT22;34807;51.456;7.244;2023-02-11T13:51:56;6.40;99.90
48998;DHT22;34807;51.456;7.244;2023-02-11T13:54:33;6.40;99.90
48998;DHT22;34807;51.456;7.244;2023-02-11T14:10:54;6.40;99.90
48998;DHT22;34807;51.456;7.244;2023-02-11T14:13:29;6.40;99.90
48998;DHT22;34807;51.456;7.244;2023-02-11T14:23:50;6.40;99.90
48998;DHT22;34807;51.456;7.244;2023-02-11T14:28:50;6.40;99.90
48998;DHT22;34807;51.456;7.244;2023-02-11T14:31:20;6.50;99.90
48998;DHT22;34807;51.456;7.244;2023-02-11T14:39:00;6.50;99.90
48998;DHT22;34807;51.456;7.244;2023-02-11T14:41:30;6.60;99.90
48998;DHT22;34807;51.456;7.244;2023-02-11T14:43:57;6.60;99.90
48998;DHT22;34807;51.456;7.244;2023-02-11T14:46:23;6.60;99.90
48998;DHT22;34807;51.456;7.244;2023-02-11T14:48:52;6.60;99.90
48998;DHT22;34807;51.456;7.244;2023-02-11T14:51:23;6.70;99.90
48998;DHT22;34807;51.456;7.244;2023-02-11T14:54:01;6.70;99.90
48998;DHT22;34807;51.456;7.244;2023-02-11T14:56:28;6.70;99.90
48998;DHT22;34807;51.456;7.244;2023-02-11T14:58:55;6.70;99.90
48998;DHT22;34807;51.456;7.244;2023-02-11T15:01:29;6.70;99.90
48998;DHT22;34807;51.456;7.244;2023-02-11T15:04:00;6.80;99.90
48998;DHT22;34807;51.456;7.244;2023-02-11T15:09:03;6.70;99.90
48998;DHT22;34807;51.456;7.244;2023-02-11T15:11:31;6.80;99.90
48998;DHT22;34807;51.456;7.244;2023-02-11T15:13:59;6.80;99.90
48998;DHT22;34807;51.456;7.244;2023-02-11T15:16:26;6.80;99.90
48998;DHT22;34807;51.456;7.244;2023-02-11T15:18:53;6.80;99.90
48998;DHT22;34807;51.456;7.244;2023-02-11T15:21:23;6.80;99.90
48998;DHT22;34807;51.456;7.244;2023-02-11T15:23:57;6.80;99.90
48998;DHT22;34807;51.456;7.244;2023-02-11T15:26:23;6.80;99.90
48998;DHT22;34807;51.456;7.244;2023-02-11T15:28:48;6.80;99.90
48998;DHT22;34807;51.456;7.244;2023-02-11T15:31:17;6.80;99.90
48998;DHT22;34807;51.456;7.244;2023-02-11T15:33:43;6.80;99.90
48998;DHT22;34807;51.456;7.244;2023-02-11T15:36:10;6.80;99.90
48998;DHT22;34807;51.456;7.244;2023-02-11T15:38:36;6.80;99.90
48998;DHT22;34807;51.456;7.244;2023-02-11T15:41:01;6.80;99.90
48998;DHT22;34807;51.456;7.244;2023-02-11T15:43:44;6.80;99.90
48998;DHT22;34807;51.456;7.244;2023-02-11T15:46:10;6.80;99.90
48998;DHT22;34807;51.456;7.244;2023-02-11T15:48:37;6.80;99.90
48998;DHT22;34807;51.456;7.244;2023-02-11T15:51:21;6.80;99.90
48998;DHT22;34807;51.456;7.244;2023-02-11T15:53:51;6.80;99.90
48998;DHT22;34807;51.456;7.244;2023-02-11T15:58:54;6.80;99.90
48998;DHT22;34807;51.456;7.244;2023-02-11T16:01:28;6.80;99.90
48998;DHT22;34807;51.456;7.244;2023-02-11T16:03:53;6.80;99.90
48998;DHT22;34807;51.456;7.244;2023-02-11T16:06:26;6.70;99.90
48998;DHT22;34807;51.456;7.244;2023-02-11T16:11:32;6.70;99.90
48998;DHT22;34807;51.456;7.244;2023-02-11T16:13:59;6.70;99.90
48998;DHT22;34807;51.456;7.244;2023-02-11T16:16:31;6.80;99.90
48998;DHT22;34807;51.456;7.244;2023-02-11T16:18:58;6.70;99.90
48998;DHT22;34807;51.456;7.244;2023-02-11T16:21:29;6.70;99.90
48998;DHT22;34807;51.456;7.244;2023-02-11T16:23:59;6.70;99.90
48998;DHT22;34807;51.456;7.244;2023-02-11T16:26:26;6.70;99.90
48998;DHT22;34807;51.456;7.244;2023-02-11T16:29:00;6.70;99.90
48998;DHT22;34807;51.456;7.244;2023-02-11T16:31:31;6.70;99.90
48998;DHT22;34807;51.456;7.244;2023-02-11T16:33:56;6.70;99.90
48998;DHT22;34807;51.456;7.244;2023-02-11T16:36:22;6.70;99.90
48998;DHT22;34807;51.456;7.244;2023-02-11T16:38:47;6.70;99.90
48998;DHT22;34807;51.456;7.244;2023-02-11T16:41:13;6.60;99.90
48998;DHT22;34807;51.456;7.244;2023-02-11T16:43:38;6.70;99.90
48998;DHT22;34807;51.456;7.244;2023-02-11T16:46:04;6.60;99.90
48998;DHT22;34807;51.456;7.244;2023-02-11T16:48:30;6.70;99.90
48998;DHT22;34807;51.456;7.244;2023-02-11T16:50:56;6.60;99.90
48998;DHT22;34807;51.456;7.244;2023-02-11T16:53:22;6.60;99.90
48998;DHT22;34807;51.456;7.244;2023-02-11T16:55:48;6.60;99.90
48998;DHT22;34807;51.456;7.244;2023-02-11T16:58:14;6.60;99.90
48998;DHT22;34807;51.456;7.244;2023-02-11T17:00:39;6.60;99.90
48998;DHT22;34807;51.456;7.244;2023-02-11T17:03:09;6.60;99.90
48998;DHT22;34807;51.456;7.244;2023-02-11T17:05:35;6.60;99.90
48998;DHT22;34807;51.456;7.244;2023-02-11T17:08:01;6.60;99.90
48998;DHT22;34807;51.456;7.244;2023-02-11T17:10:28;6.60;99.90
48998;DHT22;34807;51.456;7.244;2023-02-11T17:12:54;6.60;99.90
48998;DHT22;34807;51.456;7.244;2023-02-11T17:15:20;6.60;99.90
48998;DHT22;34807;51.456;7.244;2023-02-11T17:17:45;6.50;99.90
48998;DHT22;34807;51.456;7.244;2023-02-11T17:20:12;6.50;99.90
48998;DHT22;34807;51.456;7.244;2023-02-11T17:22:38;6.50;99.90
48998;DHT22;34807;51.456;7.244;2023-02-11T17:25:03;6.50;99.90
48998;DHT22;34807;51.456;7.244;2023-02-11T17:27:29;6.50;99.90
48998;DHT22;34807;51.456;7.244;2023-02-11T17:29:54;6.50;99.90
48998;DHT22;34807;51.456;7.244;2023-02-11T17:32:20;6.50;99.90
48998;DHT22;34807;51.456;7.244;2023-02-11T17:34:45;6.50;99.90
48998;DHT22;34807;51.456;7.244;2023-02-11T17:37:11;6.50;99.90
48998;DHT22;34807;51.456;7.244;2023-02-11T17:39:37;6.50;99.90
48998;DHT22;34807;51.456;7.244;2023-02-11T17:42:02;6.50;99.90
48998;DHT22;34807;51.456;7.244;2023-02-11T17:44:28;6.50;99.90
48998;DHT22;34807;51.456;7.244;2023-02-11T17:46:53;6.50;99.90
48998;DHT22;34807;51.456;7.244;2023-02-11T17:49:19;6.50;99.90
48998;DHT22;34807;51.456;7.244;2023-02-11T17:51:45;6.50;99.90
48998;DHT22;34807;51.456;7.244;2023-02-11T17:54:12;6.50;99.90
48998;DHT22;34807;51.456;7.244;2023-02-11T17:56:38;6.50;99.90
48998;DHT22;34807;51.456;7.244;2023-02-11T17:59:04;6.40;99.90
48998;DHT22;34807;51.456;7.244;2023-02-11T18:01:31;6.50;99.90
48998;DHT22;34807;51.456;7.244;2023-02-11T18:03:57;6.40;99.90
48998;DHT22;34807;51.456;7.244;2023-02-11T18:06:22;6.50;99.90
48998;DHT22;34807;51.456;7.244;2023-02-11T18:08:48;6.40;99.90
48998;DHT22;34807;51.456;7.244;2023-02-11T18:11:13;6.40;99.90
48998;DHT22;34807;51.456;7.244;2023-02-11T18:13:40;6.40;99.90
48998;DHT22;34807;51.456;7.244;2023-02-11T18:16:05;6.50;99.90
48998;DHT22;34807;51.456;7.244;2023-02-11T18:18:32;6.40;99.90
48998;DHT22;34807;51.456;7.244;2023-02-11T18:20:59;6.40;99.90